Air Quality Table

TIMESTAMP NO2 SO2 O3 CO TEMP HUM AIRPRES WS WD NO BENZENE
2022-05-26 17:00 27.16 µg/m3 0.98 µg/m3 62.22 µg/m3 0.43 mg/m3 29.08 °C 39.24 % 1,015.50 mbar 2.05 m/s 175.74 Deg 9.06 µg/m3 0.75 µg/m3
2022-05-26 09:00 36.13 µg/m3 0.64 µg/m3 44.08 µg/m3 0.36 mg/m3 22.57 °C 71.08 % 1,014.80 mbar 1.31 m/s 103.43 Deg 9.25 µg/m3 1.29 µg/m3
2022-05-26 01:00 20.14 µg/m3 0.52 µg/m3 58.33 µg/m3 0.39 mg/m3 24.52 °C 51.79 % 1,014.21 mbar 1.49 m/s 207.32 Deg 3.37 µg/m3 0.63 µg/m3
2022-05-25 17:00 90.14 µg/m3 24.78 µg/m3 75.23 µg/m3 0.31 mg/m3 31.41 °C 19.72 % 1,012.67 mbar 3.56 m/s 145.47 Deg 11.8 µg/m3 0.57 µg/m3
2022-05-25 09:00 31.29 µg/m3 0.59 µg/m3 0 µg/m3 0.3 mg/m3 25.6 °C 28.86 % 1,011.00 mbar 2.9 m/s 157.83 Deg 11.39 µg/m3 0.59 µg/m3
2022-05-25 01:00 19.76 µg/m3 0.61 µg/m3 0 µg/m3 0.36 mg/m3 24.37 °C 34.96 % 1,010.12 mbar 1.66 m/s 164.34 Deg 4.31 µg/m3 0.75 µg/m3
2022-05-24 17:00 26.93 µg/m3 0.78 µg/m3 0 µg/m3 0.45 mg/m3 -34 °C 48.26 % 1,007.80 mbar 4.72 m/s 140.68 Deg 10.54 µg/m3 1.2 µg/m3
2022-05-24 09:00 56.23 µg/m3 1.72 µg/m3 0 µg/m3 0.52 mg/m3 20.06 °C 38.76 % 1,008.89 mbar 5.57 m/s 191.76 Deg 58.19 µg/m3 1.98 µg/m3
2022-05-24 01:00 39.15 µg/m3 1.54 µg/m3 0 µg/m3 0.41 mg/m3 22.32 °C 36.84 % 1,010.26 mbar 1.05 m/s 189.75 Deg 12.59 µg/m3 1.05 µg/m3
2022-05-23 17:00 16.22 µg/m3 2.87 µg/m3 0 µg/m3 0.25 mg/m3 25.47 °C 37.48 % 1,008.63 mbar 4.57 m/s 2 Deg 7.05 µg/m3 1.05 µg/m3
2022-05-23 09:00 20.75 µg/m3 0.41 µg/m3 53.66 µg/m3 0.3 mg/m3 20.06 °C 83.59 % 1,011.40 mbar 3.35 m/s 236.36 Deg 7.69 µg/m3 0.9 µg/m3
2022-05-23 01:00 11.18 µg/m3 0.08 µg/m3 56.57 µg/m3 0.32 mg/m3 19.82 °C 93.52 % 1,012.44 mbar 3.78 m/s 247.7 Deg 2.59 µg/m3 0.5 µg/m3
2022-05-22 17:00 8.9 µg/m3 0.21 µg/m3 74.18 µg/m3 0.3 mg/m3 21.65 °C 78.4 % 1,013.89 mbar 5.93 m/s 251.23 Deg 2.98 µg/m3 0.47 µg/m3
2022-05-22 09:00 9.24 µg/m3 0.04 µg/m3 70.57 µg/m3 0.27 mg/m3 18.93 °C 84.66 % 1,015.28 mbar 4.06 m/s 263.46 Deg 1.42 µg/m3 0.09 µg/m3
2022-05-22 01:00 13.39 µg/m3 0.06 µg/m3 64.4 µg/m3 0.3 mg/m3 18.99 °C 83.73 % 1,017.70 mbar 3.44 m/s 260.14 Deg 3.3 µg/m3 0.36 µg/m3
2022-05-21 17:00 11.15 µg/m3 0.27 µg/m3 80.75 µg/m3 0.28 mg/m3 21.5 °C 73.83 % 1,020.57 mbar 4.65 m/s 247.75 Deg 3.8 µg/m3 0.14 µg/m3
2022-05-21 09:00 13.18 µg/m3 0.08 µg/m3 67.36 µg/m3 0.29 mg/m3 18.76 °C 87.92 % 1,021.85 mbar 2.45 m/s 277.89 Deg 2.49 µg/m3 0.38 µg/m3
2022-05-21 01:00 19.13 µg/m3 0.38 µg/m3 55.68 µg/m3 0.41 mg/m3 18.92 °C 83.45 % 1,024.14 mbar 2.04 m/s 248.51 Deg 4.23 µg/m3 0.86 µg/m3
2022-05-20 17:00 15.92 µg/m3 0.3 µg/m3 76.98 µg/m3 0.38 mg/m3 20.64 °C 74.86 % 1,026.07 mbar 3.38 m/s 92.54 Deg 5.88 µg/m3 0.33 µg/m3
2022-05-20 09:00 20.25 µg/m3 0.24 µg/m3 66.72 µg/m3 0.3 mg/m3 19.55 °C 83.82 % 1,025.23 mbar 1.88 m/s 124.2 Deg 5.35 µg/m3 0.4 µg/m3

It is to be noted that the data is provisional and subject to quality assurance procedures. For validated data kindly refer your request to contact.air@era.org.mt